KCVN/CVN METAR and TAF weather

Enter ICAO airport designator
Station Type Date Time Source
KCVN METAR 2019/05/20 10:56 UTC NOAA

KCVN 201056Z AUTO 16017G24KT 9SM -RA OVC012 16/14 A2978 RMK AO2 LTG DSNT N RAB50 SLP046 P0000 T01560139


Station Type Date Time Source
KCVN Decoded METAR 2019/05/20 10:56 UTC NOAA

Clovis, Clovis Municipal Airport, NM, United States (KCVN) 34-26N 103-05W
May 20, 2019 - 06:56 AM EDT / 2019.05.20 1056 UTC
Wind: from the SSE (160 degrees) at 20 MPH (17 KT) gusting to 28 MPH (24 KT):0
Visibility: 9 mile(s):0
Sky conditions: overcast
Weather: light rain; Lightning observed
Precipitation last hour: A trace
Temperature: 60.1 F (15.6 C)
Dew Point: 57.0 F (13.9 C)
Relative Humidity: 89%
Pressure (altimeter): 29.78 in. Hg (1008 hPa)
ob: KCVN 201056Z AUTO 16017G24KT 9SM -RA OVC012 16/14 A2978 RMK AO2 LTG DSNT N RAB50 SLP046 P0000 T01560139
cycle: 11

Station Type Date Time Source
KCVN TAF UTC NOAA

Error!

Example: see airport list